Jackson (JAN/KJAN)

Map

Destinations

Information

Location
Jackson, Mississippi
Local Time
18:27 / 6:27 pm
GMT Time
00:27 / 12:27 am
Gates
Unassigned
No FAA reported delays
METAR KJAN 222354Z 24004KT 10SM -RA BKN060 OVC075 12/10 A2943 RMK AO2 SLP965 P0002 60015 T01170100 10183 20117 51032
TAF KJAN 222327Z 2300/2324 26010G20KT 5SM -SHRA BKN050 FM230300 28013G25KT 6SM -SHRA BKN015 BKN025 FM230500 31017G28KT 6SM BR VCSH BKN008 OVC025 FM231000 31015G27KT P6SM BKN015 OVC025 FM231700 32010G20KT P6SM FEW015 SCT025 BKN250
  • No charts available